Time;durP1;ratioP1;P1;durP2;ratioP2;P2;SDS_P1;SDS_P2;PMS_P1;PMS_P2;Temp;Humidity;BMP_temperature;BMP_pressure;BME280_temperature;BME280_humidity;BME280_pressure;Samples;Min_cycle;Max_cycle;Signal;HPM_P1;HPM_P2
2022/01/23 00:00:00;;;;;;;7.75;5.10;;;;;;;-4.70;59.33;95125.88;5109880;28;20036;-74
2022/01/23 00:02:27;;;;;;;5.97;3.83;;;;;;;-4.87;59.24;95124.47;5109555;28;20420;-74
2022/01/23 00:04:53;;;;;;;7.38;3.72;;;;;;;-4.80;59.66;95120.94;5109556;28;20031;-73
2022/01/23 00:07:19;;;;;;;6.10;4.13;;;;;;;-4.78;59.08;95123.47;5092696;28;20024;-74
2022/01/23 00:09:44;;;;;;;7.18;4.28;;;;;;;-4.71;59.74;95135.13;5109628;28;20673;-73
2022/01/23 00:12:14;;;;;;;10.85;5.50;;;;;;;-4.70;58.93;95128.41;5110925;28;20024;-74
2022/01/23 00:17:24;;;;;;;5.70;3.83;;;;;;;-4.70;58.85;95125.88;5109923;28;20073;-74
2022/01/23 00:19:52;;;;;;;8.52;4.30;;;;;;;-4.72;58.63;95125.88;5110735;28;20035;-74
2022/01/23 00:22:19;;;;;;;7.60;4.75;;;;;;;-4.67;59.20;95134.25;5096304;28;20031;-74
2022/01/23 00:32:54;;;;;;;5.32;2.60;;;;;;;-4.85;60.10;95132.03;5098569;28;20034;-73
2022/01/23 00:35:20;;;;;;;6.38;4.00;;;;;;;-4.75;59.45;95138.59;5096336;28;20161;-74
2022/01/23 00:37:45;;;;;;;5.30;3.33;;;;;;;-4.79;59.63;95121.78;5109773;28;20497;-74
2022/01/23 00:40:11;;;;;;;7.03;3.47;;;;;;;-4.81;60.07;95129.41;5090079;28;20554;-74
2022/01/23 00:42:36;;;;;;;5.35;3.30;;;;;;;-4.73;60.64;95147.03;5096112;28;20032;-73
2022/01/23 00:45:24;;;;;;;6.88;3.03;;;;;;;-4.89;60.33;95130.44;5111495;28;20485;-74
2022/01/23 00:47:50;;;;;;;5.97;3.10;;;;;;;-4.76;60.57;95139.47;5113103;28;20066;-73
2022/01/23 00:50:16;;;;;;;6.35;3.63;;;;;;;-4.75;60.68;95141.97;5096162;28;20381;-73
2022/01/23 00:52:41;;;;;;;6.60;3.42;;;;;;;-4.82;60.58;95142.97;5112884;28;20466;-74
2022/01/23 00:55:07;;;;;;;4.78;3.63;;;;;;;-4.74;60.26;95146.16;5114002;28;20031;-74
2022/01/23 00:57:33;;;;;;;4.93;3.40;;;;;;;-4.85;60.03;95143.00;5114241;28;20053;-74
2022/01/23 01:00:00;;;;;;;5.28;3.25;;;;;;;-4.77;60.41;95141.16;5095870;28;20058;-74
2022/01/23 01:02:25;;;;;;;4.25;2.97;;;;;;;-4.71;60.43;95137.69;5112717;28;20023;-74
2022/01/23 01:04:50;;;;;;;6.90;3.53;;;;;;;-4.63;59.88;95133.31;5095598;28;20035;-73
2022/01/23 01:07:16;;;;;;;5.57;3.85;;;;;;;-4.61;60.72;95151.88;5078647;28;20035;-74
2022/01/23 01:09:47;;;;;;;7.70;3.58;;;;;;;-4.68;60.59;95145.25;5113749;28;20028;-73
2022/01/23 01:12:19;;;;;;;5.25;3.42;;;;;;;-4.78;61.16;95142.03;5112615;28;20038;-74
2022/01/23 01:15:11;;;;;;;6.05;3.40;;;;;;;-4.82;61.00;95137.03;5113655;28;20031;-73
2022/01/23 01:31:22;;;;;;;6.10;4.25;;;;;;;-4.71;61.84;95140.22;5112425;28;20038;-74
2022/01/23 01:38:45;;;;;;;7.35;4.00;;;;;;;-4.68;62.07;95144.38;5113531;28;20047;-74
2022/01/23 01:41:10;;;;;;;6.97;3.63;;;;;;;-4.69;62.06;95151.16;5095299;28;20043;-74
2022/01/23 01:43:35;;;;;;;6.80;3.35;;;;;;;-4.73;62.78;95152.09;5113035;28;20504;-74
2022/01/23 01:46:01;;;;;;;5.78;3.58;;;;;;;-4.84;62.59;95159.06;5111754;28;20478;-74
2022/01/23 01:48:26;;;;;;;7.60;3.90;;;;;;;-4.77;62.67;95150.47;5113263;28;20393;-73
2022/01/23 01:50:54;;;;;;;6.18;3.38;;;;;;;-4.75;62.58;95151.28;5111605;28;20055;-73
2022/01/23 01:53:23;;;;;;;7.07;4.00;;;;;;;-4.73;62.67;95144.50;5078527;28;20042;-74
2022/01/23 01:55:51;;;;;;;6.15;3.97;;;;;;;-4.64;62.69;95154.47;5095032;28;20047;-74
2022/01/23 01:59:09;;;;;;;7.28;4.15;;;;;;;-4.75;62.60;95129.31;5111675;28;20039;-73
2022/01/23 02:57:09;;;;;;;9.45;4.43;;;;;;;-4.88;61.48;95180.25;5110612;28;20409;-73
2022/01/23 02:59:37;;;;;;;8.38;4.55;;;;;;;-4.90;61.41;95189.56;5093794;28;20031;-73
2022/01/23 03:02:26;;;;;;;6.88;3.97;;;;;;;-4.88;62.24;95187.84;5093754;28;20042;-73
2022/01/23 03:04:54;;;;;;;7.70;4.60;;;;;;;-4.91;62.03;95173.53;5111536;28;20035;-74
2022/01/23 03:10:09;;;;;;;7.93;4.90;;;;;;;-4.89;60.96;95176.03;5096164;28;20566;-73
2022/01/23 03:26:17;;;;;;;6.95;3.85;;;;;;;-4.95;60.65;95203.16;5095813;28;20097;-73
2022/01/23 03:31:33;;;;;;;7.57;3.90;;;;;;;-4.97;60.76;95202.34;5110328;28;20097;-73
2022/01/23 03:33:59;;;;;;;6.70;4.25;;;;;;;-4.96;60.30;95198.97;5094226;28;20032;-74
2022/01/23 03:36:25;;;;;;;5.55;3.78;;;;;;;-5.20;61.15;95212.03;5110056;28;20080;-74
2022/01/23 03:38:51;;;;;;;5.95;4.00;;;;;;;-5.14;60.46;95206.84;5109906;28;20493;-74
2022/01/23 03:41:16;;;;;;;8.27;4.20;;;;;;;-5.14;60.94;95211.91;5093453;28;20020;-74
2022/01/23 03:43:41;;;;;;;6.07;3.80;;;;;;;-5.18;61.23;95210.31;5109980;28;20477;-74
2022/01/23 03:46:21;;;;;;;6.95;4.35;;;;;;;-5.16;60.25;95209.41;5092926;28;20101;-74
2022/01/23 03:51:13;;;;;;;8.02;4.38;;;;;;;-5.09;59.76;95207.63;5110011;28;20394;-74
2022/01/23 03:53:39;;;;;;;7.82;4.28;;;;;;;-5.03;60.13;95212.59;5092965;28;20027;-74
2022/01/23 03:56:05;;;;;;;8.75;5.05;;;;;;;-5.07;59.82;95216.03;5112544;28;20038;-74
2022/01/23 03:58:30;;;;;;;7.43;4.68;;;;;;;-5.10;59.47;95210.16;5115432;28;20055;-74
2022/01/23 04:00:56;;;;;;;6.53;4.70;;;;;;;-5.10;60.04;95208.47;5115134;28;20112;-74
2022/01/23 04:03:21;;;;;;;9.30;3.97;;;;;;;-5.16;59.63;95198.44;5115323;28;20107;-73
2022/01/23 04:05:47;;;;;;;7.38;4.00;;;;;;;-5.08;59.43;95210.97;5079761;28;20042;-74
2022/01/23 04:08:12;;;;;;;6.57;4.25;;;;;;;-5.14;59.78;95211.91;5113914;28;20066;-73
2022/01/23 04:10:39;;;;;;;7.85;4.57;;;;;;;-5.20;59.56;95209.50;5096718;28;20031;-73
2022/01/23 04:13:18;;;;;;;9.18;3.92;;;;;;;-5.35;60.41;95210.53;5113669;28;20105;-73
2022/01/23 04:34:18;;;;;;;9.88;4.60;;;;;;;-5.21;60.15;95216.25;5113630;28;20108;-74
2022/01/23 05:04:21;;;;;;;7.10;4.05;;;;;;;-4.96;58.99;95238.66;5093716;28;20039;-73
2022/01/23 05:06:58;;;;;;;8.15;4.35;;;;;;;-5.00;58.36;95225.19;5112435;28;20466;-74
2022/01/23 05:09:24;;;;;;;6.80;4.10;;;;;;;-5.07;58.68;95248.97;5097570;28;20027;-73
2022/01/23 05:11:51;;;;;;;6.80;3.90;;;;;;;-5.04;59.02;95248.06;5113790;28;20028;-73
2022/01/23 05:14:21;;;;;;;8.02;5.43;;;;;;;-5.05;58.91;95254.84;5095831;28;20061;-74
2022/01/23 05:16:47;;;;;;;6.63;3.92;;;;;;;-5.02;58.50;95267.47;5112478;28;20032;-74
2022/01/23 05:19:12;;;;;;;7.20;4.53;;;;;;;-5.07;58.46;95271.78;5112518;28;20101;-74
2022/01/23 05:24:04;;;;;;;8.52;4.35;;;;;;;-5.13;58.47;95269.31;5112508;28;20034;-74
2022/01/23 05:26:31;;;;;;;10.55;5.80;;;;;;;-5.20;57.80;95265.22;5112238;28;20080;-73
2022/01/23 05:28:56;;;;;;;6.03;3.95;;;;;;;-5.09;58.02;95258.28;5112412;28;20028;-73
2022/01/23 05:31:22;;;;;;;7.18;4.00;;;;;;;-5.02;58.04;95266.63;5112302;28;20092;-74
2022/01/23 05:33:47;;;;;;;7.80;4.45;;;;;;;-5.05;58.31;95256.53;5095022;28;20581;-74
2022/01/23 05:36:12;;;;;;;9.27;4.63;;;;;;;-5.03;57.57;95260.72;5112123;28;20489;-73
2022/01/23 05:38:38;;;;;;;8.32;4.35;;;;;;;-5.05;57.53;95262.44;5095046;28;20104;-74
2022/01/23 05:41:03;;;;;;;6.70;3.90;;;;;;;-5.13;57.57;95259.19;5112043;28;20411;-74
2022/01/23 05:43:29;;;;;;;9.27;4.47;;;;;;;-5.18;57.61;95268.56;5112053;28;20035;-74
2022/01/23 05:45:54;;;;;;;5.97;3.97;;;;;;;-5.08;57.73;95251.53;5111819;28;20088;-73
2022/01/23 05:48:20;;;;;;;6.20;3.70;;;;;;;-5.02;57.75;95257.31;5094972;28;20027;-73
2022/01/23 05:50:46;;;;;;;6.18;4.13;;;;;;;-4.98;57.08;95260.66;5111607;28;20054;-74
2022/01/23 05:53:11;;;;;;;8.75;3.85;;;;;;;-5.00;57.17;95255.59;5094967;28;20039;-74
2022/01/23 05:55:37;;;;;;;5.95;3.72;;;;;;;-5.09;57.03;95265.06;5111670;28;20034;-73
2022/01/23 05:58:02;;;;;;;11.00;5.05;;;;;;;-5.02;56.99;95264.09;5094639;28;20039;-74
2022/01/23 06:00:28;;;;;;;6.75;4.00;;;;;;;-5.01;56.76;95273.38;5111634;28;20031;-73
2022/01/23 06:02:53;;;;;;;5.85;3.83;;;;;;;-5.11;56.43;95272.69;5111584;28;20050;-74
2022/01/23 06:05:19;;;;;;;8.02;4.28;;;;;;;-5.05;57.04;95266.69;5094426;28;20512;-73
2022/01/23 06:07:45;;;;;;;8.48;4.65;;;;;;;-5.06;56.82;95267.56;5111512;28;20281;-74
2022/01/23 06:10:20;;;;;;;6.70;4.25;;;;;;;-5.12;56.44;95271.00;5111287;28;20060;-73
2022/01/23 06:12:45;;;;;;;9.32;5.13;;;;;;;-5.12;57.12;95271.00;5112683;28;20032;-74
2022/01/23 06:15:11;;;;;;;8.93;3.90;;;;;;;-5.10;57.64;95281.09;5094266;28;20032;-73
2022/01/23 06:17:37;;;;;;;8.20;4.93;;;;;;;-5.13;56.80;95288.75;5111227;28;20477;-74
2022/01/23 06:20:03;;;;;;;7.68;4.68;;;;;;;-5.09;56.88;95295.47;5111752;28;20027;-74
2022/01/23 06:22:28;;;;;;;7.28;4.35;;;;;;;-5.00;56.17;95298.69;5111228;28;20524;-74
2022/01/23 06:24:54;;;;;;;8.65;4.43;;;;;;;-5.02;56.54;95297.03;5111031;28;20051;-74
2022/01/23 06:27:19;;;;;;;8.50;4.93;;;;;;;-5.04;57.31;95293.69;5112549;28;20408;-74
2022/01/23 06:29:45;;;;;;;8.35;4.70;;;;;;;-5.09;57.25;95293.78;5094045;28;20043;-74
2022/01/23 06:32:10;;;;;;;9.10;5.13;;;;;;;-5.09;57.58;95301.38;5094084;28;20103;-73
2022/01/23 06:34:36;;;;;;;9.27;5.38;;;;;;;-5.09;57.08;95305.59;5111040;28;20546;-74
2022/01/23 06:37:01;;;;;;;9.07;5.30;;;;;;;-5.13;57.69;95309.03;5093902;28;20550;-73
2022/01/23 06:39:26;;;;;;;9.98;5.63;;;;;;;-5.27;58.49;95297.38;5109003;28;20023;-73
2022/01/23 06:41:52;;;;;;;9.63;5.90;;;;;;;-5.18;56.79;95309.13;5104305;28;20413;-74
2022/01/23 06:44:17;;;;;;;9.20;5.90;;;;;;;-5.49;57.41;95266.47;5093808;28;20023;-74
2022/01/23 06:46:43;;;;;;;10.63;5.45;;;;;;;-5.25;57.73;95284.72;5109222;28;20031;-74
2022/01/23 06:49:09;;;;;;;10.32;5.32;;;;;;;-5.29;57.87;95289.00;5093696;28;20032;-74
2022/01/23 06:51:35;;;;;;;9.80;6.13;;;;;;;-5.41;58.09;95289.13;5093766;28;20047;-74
2022/01/23 06:54:00;;;;;;;9.68;5.75;;;;;;;-5.32;57.70;95288.16;5093809;28;20035;-73
2022/01/23 06:56:26;;;;;;;10.48;6.18;;;;;;;-5.27;57.76;95286.41;5093670;28;20027;-74
2022/01/23 06:58:51;;;;;;;10.65;5.93;;;;;;;-5.24;57.59;95294.84;5111956;28;20046;-73
2022/01/23 07:01:16;;;;;;;10.13;6.07;;;;;;;-5.25;57.80;95288.06;5110539;28;20028;-73
2022/01/23 07:03:42;;;;;;;8.82;5.68;;;;;;;-5.22;57.94;95284.66;5093306;28;20027;-74
2022/01/23 07:06:07;;;;;;;10.38;6.03;;;;;;;-5.21;57.90;95286.31;5093314;28;20047;-73
2022/01/23 07:08:33;;;;;;;13.35;7.72;;;;;;;-5.13;58.16;95287.06;5093411;28;20042;-73
2022/01/23 07:10:58;;;;;;;32.92;14.40;;;;;;;-5.08;57.84;95292.06;5093290;28;20421;-74
2022/01/23 07:13:24;;;;;;;15.43;8.93;;;;;;;-5.07;57.99;95297.13;5093342;28;20114;-73
2022/01/23 07:15:49;;;;;;;32.28;23.05;;;;;;;-5.03;57.86;95291.13;5110223;28;20036;-74
2022/01/23 07:18:18;;;;;;;17.08;12.20;;;;;;;-5.05;58.14;95300.44;5110398;28;20047;-74
2022/01/23 07:20:44;;;;;;;24.00;15.25;;;;;;;-4.98;58.21;95303.75;5110212;28;20106;-74
2022/01/23 07:23:09;;;;;;;32.97;17.17;;;;;;;-4.94;57.97;95300.28;5110248;28;20027;-74
2022/01/23 07:25:35;;;;;;;34.42;18.10;;;;;;;-4.84;58.09;95303.53;5092978;28;20478;-73
2022/01/23 07:28:02;;;;;;;28.13;18.42;;;;;;;-4.83;57.97;95305.22;5093099;28;20028;-73
2022/01/23 07:32:53;;;;;;;22.42;13.35;;;;;;;-4.80;57.43;95297.56;5110212;28;20028;-74
2022/01/23 07:35:18;;;;;;;18.80;11.68;;;;;;;-4.78;58.03;95306.81;5093068;28;20084;-73
2022/01/23 07:37:44;;;;;;;17.17;9.43;;;;;;;-4.77;57.62;95308.47;5092923;28;20448;-74
2022/01/23 07:40:10;;;;;;;17.88;10.43;;;;;;;-4.75;58.31;95295.78;5109983;28;20035;-74
2022/01/23 07:42:35;;;;;;;31.92;18.42;;;;;;;-4.66;57.92;95298.16;5093055;28;20038;-74
2022/01/23 07:45:02;;;;;;;66.80;26.63;;;;;;;-4.55;57.52;95303.91;5092781;28;20023;-74
2022/01/23 07:47:27;;;;;;;29.23;15.23;;;;;;;-4.44;57.68;95302.91;5110023;28;20049;-74
2022/01/23 07:49:53;;;;;;;26.23;16.08;;;;;;;-4.48;57.79;95294.50;5092762;28;20126;-74
2022/01/23 07:52:18;;;;;;;12.25;7.20;;;;;;;-4.45;57.21;95299.53;5109820;28;20027;-74
2022/01/23 07:54:44;;;;;;;10.50;6.78;;;;;;;-4.41;56.70;95305.38;5109804;28;20111;-74
2022/01/23 07:57:09;;;;;;;16.63;11.05;;;;;;;-4.30;56.97;95304.31;5109867;28;20024;-73
2022/01/23 07:59:35;;;;;;;12.27;8.20;;;;;;;-4.44;56.37;95301.19;5109947;28;20031;-73
2022/01/23 08:02:01;;;;;;;18.52;12.20;;;;;;;-4.37;56.44;95297.69;5092969;28;20036;-74
2022/01/23 08:04:26;;;;;;;20.45;14.15;;;;;;;-4.60;56.90;95305.66;5109802;28;20038;-74
2022/01/23 08:07:07;;;;;;;19.63;12.20;;;;;;;-4.54;56.82;95297.13;5092692;28;20031;-74
2022/01/23 08:09:33;;;;;;;14.25;9.85;;;;;;;-4.33;56.95;95301.00;5111524;28;20023;-74
2022/01/23 08:11:58;;;;;;;9.23;5.72;;;;;;;-4.31;55.44;95305.19;5092769;28;20040;-74
2022/01/23 08:14:24;;;;;;;11.48;7.00;;;;;;;-4.43;56.55;95302.03;5111293;28;20032;-74
2022/01/23 08:16:49;;;;;;;10.80;7.13;;;;;;;-4.50;55.49;95294.53;5109740;28;20035;-74
2022/01/23 08:19:14;;;;;;;8.00;5.47;;;;;;;-4.48;56.17;95294.50;5109883;28;20054;-74
2022/01/23 08:21:40;;;;;;;9.85;6.18;;;;;;;-4.38;55.62;95303.63;5109734;28;20081;-74
2022/01/23 08:24:05;;;;;;;9.43;7.00;;;;;;;-4.34;56.17;95304.44;5110657;28;20498;-74
2022/01/23 08:26:31;;;;;;;8.38;5.65;;;;;;;-4.43;54.54;95300.34;5092435;28;20096;-74
2022/01/23 08:28:56;;;;;;;9.02;6.07;;;;;;;-4.49;56.08;95316.47;5109675;28;20031;-73
2022/01/23 08:31:22;;;;;;;11.40;7.60;;;;;;;-4.45;55.14;95307.13;5110780;28;20487;-74
2022/01/23 08:33:48;;;;;;;22.88;12.15;;;;;;;-4.34;56.10;95306.97;5092603;28;20035;-74
2022/01/23 08:36:13;;;;;;;13.80;9.20;;;;;;;-4.27;55.28;95308.50;5110711;28;20024;-74
2022/01/23 08:38:39;;;;;;;17.00;10.60;;;;;;;-4.39;56.22;95317.19;5109385;28;20456;-74
2022/01/23 08:43:49;;;;;;;33.95;18.45;;;;;;;-4.48;55.69;95307.19;5113645;28;20103;-74
2022/01/23 08:46:14;;;;;;;26.05;15.10;;;;;;;-4.33;55.34;95301.84;5096009;28;20475;-74
2022/01/23 08:48:41;;;;;;;31.63;17.90;;;;;;;-4.22;54.79;95305.91;5114468;28;20024;-74
2022/01/23 08:51:07;;;;;;;14.38;9.93;;;;;;;-4.14;54.34;95299.81;5096360;28;20073;-74
2022/01/23 08:53:33;;;;;;;25.92;16.58;;;;;;;-4.12;54.63;95303.19;5096060;28;20031;-73
2022/01/23 08:55:58;;;;;;;24.58;15.38;;;;;;;-3.97;54.85;95311.38;5112802;28;20039;-74
2022/01/23 08:58:23;;;;;;;22.02;13.80;;;;;;;-3.96;54.89;95307.97;5112963;28;20034;-73
2022/01/23 09:00:49;;;;;;;26.67;15.27;;;;;;;-3.82;55.81;95309.41;5112742;28;20043;-74
2022/01/23 09:03:14;;;;;;;37.72;22.83;;;;;;;-3.75;54.54;95299.13;5112843;28;20027;-74
2022/01/23 09:05:40;;;;;;;27.58;19.70;;;;;;;-3.73;54.56;95299.91;5095599;28;20036;-74
2022/01/23 09:08:05;;;;;;;96.53;47.33;;;;;;;-3.79;54.53;95290.69;5095696;28;20039;-74
2022/01/23 09:10:40;;;;;;;33.67;18.67;;;;;;;-3.79;53.21;95302.56;5112477;28;20035;-74
2022/01/23 09:13:29;;;;;;;57.72;22.95;;;;;;;-3.94;53.63;95299.44;5112762;28;20110;-74
2022/01/23 09:15:54;;;;;;;102.45;40.42;;;;;;;-3.80;53.51;95313.59;5099102;28;20035;-74
2022/01/23 09:18:19;;;;;;;79.15;37.95;;;;;;;-3.74;53.80;95301.59;5095497;28;20026;-74
2022/01/23 09:20:45;;;;;;;31.40;15.95;;;;;;;-3.84;53.44;95300.97;5112445;28;20031;-74
2022/01/23 09:23:10;;;;;;;14.52;10.55;;;;;;;-3.88;53.37;95316.28;5113561;28;20038;-74
2022/01/23 09:25:36;;;;;;;16.65;10.57;;;;;;;-3.94;53.35;95293.53;5112215;28;20414;-73
2022/01/23 09:28:03;;;;;;;11.05;6.97;;;;;;;-3.77;53.12;95305.91;5113677;28;20050;-74
2022/01/23 09:30:34;;;;;;;13.40;8.25;;;;;;;-3.95;53.47;95302.88;5095294;28;20035;-74
2022/01/23 09:33:00;;;;;;;10.85;7.40;;;;;;;-3.94;52.74;95288.47;5113592;28;20036;-74
2022/01/23 09:35:25;;;;;;;14.15;9.23;;;;;;;-3.90;53.74;95297.69;5112147;28;20085;-73
2022/01/23 09:37:51;;;;;;;15.10;9.18;;;;;;;-3.98;53.87;95286.84;5112125;28;20421;-73
2022/01/23 09:40:16;;;;;;;15.40;10.88;;;;;;;-3.85;54.29;95286.56;5113259;28;20421;-74
2022/01/23 09:42:43;;;;;;;23.23;14.23;;;;;;;-3.86;53.73;95274.75;5113252;28;20019;-73
2022/01/23 09:45:10;;;;;;;18.55;11.63;;;;;;;-3.82;54.35;95266.22;5094976;28;20477;-74
2022/01/23 09:47:36;;;;;;;20.63;12.98;;;;;;;-3.72;54.20;95276.19;5095053;28;20176;-74
2022/01/23 09:50:03;;;;;;;16.20;10.82;;;;;;;-3.70;54.19;95275.31;5111669;28;20142;-73
2022/01/23 09:52:33;;;;;;;14.90;9.73;;;;;;;-3.66;53.61;95274.34;5094818;28;20032;-74
2022/01/23 09:55:05;;;;;;;29.25;15.40;;;;;;;-3.80;53.68;95273.81;5111030;28;20408;-74
2022/01/23 09:57:32;;;;;;;15.60;9.55;;;;;;;-3.71;53.15;95273.59;5095931;28;20028;-74
2022/01/23 09:59:59;;;;;;;60.03;24.75;;;;;;;-3.73;53.71;95275.38;5111662;28;20024;-74
2022/01/23 10:02:24;;;;;;;67.63;23.45;;;;;;;-3.72;53.71;95268.56;5111565;28;20089;-73
2022/01/23 10:04:51;;;;;;;28.35;10.85;;;;;;;-3.72;53.77;95268.56;5094423;28;20027;-74
2022/01/23 10:07:16;;;;;;;44.00;17.55;;;;;;;-3.82;52.73;95258.63;5094615;28;20027;-73
2022/01/23 10:09:41;;;;;;;24.52;11.88;;;;;;;-3.70;53.38;95265.13;5094417;28;20031;-74
2022/01/23 10:12:08;;;;;;;43.50;15.63;;;;;;;-3.66;53.69;95256.56;5094514;28;20019;-74
2022/01/23 10:14:35;;;;;;;30.05;13.30;;;;;;;-3.65;53.52;95258.28;5094625;28;20485;-74
2022/01/23 10:17:00;;;;;;;32.05;12.55;;;;;;;-3.70;53.70;95246.53;5111333;28;20035;-74
2022/01/23 10:19:26;;;;;;;66.82;19.70;;;;;;;-3.65;52.58;95258.28;5094405;28;20042;-73
2022/01/23 10:21:51;;;;;;;14.27;9.45;;;;;;;-3.74;52.00;95252.53;5094261;28;20301;-74
2022/01/23 10:24:17;;;;;;;14.52;8.73;;;;;;;-3.77;52.36;95252.59;5094201;28;20469;-74
2022/01/23 10:26:55;;;;;;;32.38;13.05;;;;;;;-3.54;52.57;95250.41;5111078;28;20028;-74
2022/01/23 10:29:36;;;;;;;42.78;18.90;;;;;;;-3.63;52.22;95228.56;5111336;28;20074;-74
2022/01/23 10:32:25;;;;;;;19.05;9.82;;;;;;;-3.65;52.52;95237.97;5111252;28;20031;-74
2022/01/23 10:34:55;;;;;;;34.10;21.52;;;;;;;-3.57;52.38;95236.94;5111039;28;20043;-73
2022/01/23 10:37:30;;;;;;;26.67;14.82;;;;;;;-3.57;52.09;95230.16;5093865;28;20028;-74
2022/01/23 10:39:56;;;;;;;21.27;13.10;;;;;;;-3.72;52.54;95212.72;5110848;28;20039;-74
2022/01/23 10:47:59;;;;;;;10.43;7.10;;;;;;;-3.24;52.24;95223.50;5112083;28;20046;-74
2022/01/23 10:50:25;;;;;;;16.08;10.50;;;;;;;-3.17;50.95;95224.22;5094729;28;20536;-73
2022/01/23 10:52:51;;;;;;;9.85;7.10;;;;;;;-3.17;50.31;95225.03;5110585;28;20024;-74
2022/01/23 10:55:19;;;;;;;9.93;6.47;;;;;;;-3.12;51.28;95221.53;5093726;28;20028;-74
2022/01/23 10:57:46;;;;;;;14.10;8.10;;;;;;;-3.15;49.93;95217.34;5111847;28;20098;-74
2022/01/23 11:00:21;;;;;;;16.75;10.52;;;;;;;-3.10;50.87;95235.06;5093686;28;20027;-74
2022/01/23 11:02:47;;;;;;;8.43;5.38;;;;;;;-3.13;50.83;95217.34;5110633;28;20411;-74
2022/01/23 11:05:14;;;;;;;6.82;4.65;;;;;;;-3.06;49.61;95201.09;5093195;28;20031;-74
2022/01/23 11:07:41;;;;;;;8.23;5.35;;;;;;;-2.99;49.82;95205.13;5093568;28;20027;-74
2022/01/23 11:10:08;;;;;;;10.95;6.90;;;;;;;-3.04;50.47;95199.31;5093501;28;20038;-74
2022/01/23 11:18:04;;;;;;;12.10;9.40;;;;;;;-2.89;49.83;95193.88;5110556;28;20031;-73
2022/01/23 11:20:42;;;;;;;9.98;6.60;;;;;;;-2.78;49.88;95191.06;5093528;28;20036;-74
2022/01/23 11:23:14;;;;;;;9.23;5.75;;;;;;;-2.95;48.71;95189.78;5110456;28;20035;-74
2022/01/23 11:26:03;;;;;;;9.18;5.70;;;;;;;-3.05;48.82;95164.63;5109933;28;20442;-74
2022/01/23 11:28:29;;;;;;;14.70;7.03;;;;;;;-2.87;49.34;95178.56;5103047;28;20039;-73
2022/01/23 11:30:54;;;;;;;23.35;9.23;;;;;;;-2.90;48.67;95176.94;5110014;28;20030;-74
2022/01/23 11:33:20;;;;;;;31.02;12.77;;;;;;;-2.88;49.11;95161.66;5110237;28;20034;-73
2022/01/23 11:35:46;;;;;;;19.90;9.82;;;;;;;-2.85;48.46;95159.88;5110012;28;20039;-74
2022/01/23 11:38:16;;;;;;;15.25;7.40;;;;;;;-3.03;48.47;95167.97;5093175;28;20375;-74
2022/01/23 11:54:03;;;;;;;9.32;5.72;;;;;;;-2.81;47.99;95176.72;5110118;28;20110;-74
2022/01/23 11:56:29;;;;;;;9.90;6.78;;;;;;;-2.82;48.58;95169.94;5076535;28;20042;-73
2022/01/23 11:59:01;;;;;;;8.65;5.93;;;;;;;-2.93;47.79;95169.38;5111401;28;20461;-73
2022/01/23 12:01:26;;;;;;;;;;;;;;;-3.02;48.01;95167.06;5111549;28;20035;-74
2022/01/23 12:04:19;;;;;;;11.40;7.63;;;;;;;-3.13;48.11;95162.25;5111283;28;19919;-74
2022/01/23 12:07:13;;;;;;;9.93;5.40;;;;;;;-3.08;47.95;95159.59;5110959;28;20040;-74
2022/01/23 12:09:39;;;;;;;9.32;5.68;;;;;;;-3.10;46.85;95161.34;5106776;28;20130;-74
2022/01/23 12:17:22;;;;;;;15.27;9.18;;;;;;;-3.12;48.39;95143.59;5112866;28;20031;-73
2022/01/23 12:19:54;;;;;;;14.38;8.05;;;;;;;-3.10;48.55;95163.88;5096745;28;20122;-74
2022/01/23 12:22:40;;;;;;;15.77;9.90;;;;;;;-3.00;47.25;95150.09;5113568;28;20454;-73
2022/01/23 12:25:23;;;;;;;21.13;13.32;;;;;;;-2.97;48.02;95161.00;5113458;28;20043;-74
2022/01/23 12:28:10;;;;;;;12.63;6.57;;;;;;;-3.08;47.55;95149.44;5113536;28;20023;-73
2022/01/23 12:30:36;;;;;;;11.95;7.53;;;;;;;-3.07;49.44;95146.00;5114637;28;20036;-74
2022/01/23 12:33:12;;;;;;;13.80;8.80;;;;;;;-3.06;48.61;95145.16;5096395;28;20015;-73
2022/01/23 12:35:39;;;;;;;16.15;8.73;;;;;;;-3.06;48.52;95156.16;5114429;28;20511;-73
2022/01/23 12:38:05;;;;;;;11.63;6.35;;;;;;;-3.15;49.40;95169.94;5096538;28;20035;-74
2022/01/23 12:40:35;;;;;;;11.13;6.53;;;;;;;-3.08;48.85;95150.28;5114338;28;20449;-74
2022/01/23 12:43:21;;;;;;;17.50;8.45;;;;;;;-3.20;48.01;95159.03;5104626;28;20066;-74
2022/01/23 12:46:03;;;;;;;9.75;5.75;;;;;;;-3.32;48.71;95179.63;5112966;28;20062;-74
2022/01/23 12:48:32;;;;;;;10.35;6.10;;;;;;;-3.32;49.33;95164.38;5113243;28;20024;-73
2022/01/23 12:51:21;;;;;;;11.63;7.70;;;;;;;-3.38;49.66;95160.28;5112761;28;20051;-74
2022/01/23 12:53:46;;;;;;;11.52;6.35;;;;;;;-3.42;49.33;95181.56;5111365;28;20061;-73
2022/01/23 12:56:14;;;;;;;9.32;5.43;;;;;;;-3.42;49.68;95168.84;5113197;28;20126;-74
2022/01/23 12:58:43;;;;;;;8.20;5.20;;;;;;;-3.37;49.56;95168.75;5096196;28;20035;-73
2022/01/23 13:01:17;;;;;;;14.00;8.48;;;;;;;-3.33;50.71;95166.97;5096219;28;20035;-74
2022/01/23 13:03:49;;;;;;;10.52;6.57;;;;;;;-3.24;50.37;95156.59;5096044;28;20429;-74
2022/01/23 13:06:15;;;;;;;19.15;9.35;;;;;;;-3.24;49.52;95165.03;5112752;28;20028;-74
2022/01/23 13:08:54;;;;;;;10.95;7.00;;;;;;;-3.19;50.13;95165.78;5095867;28;20027;-73
2022/01/23 13:14:08;;;;;;;21.58;11.48;;;;;;;-3.13;50.76;95164.78;5102674;28;20398;-73
2022/01/23 13:16:59;;;;;;;13.95;8.32;;;;;;;-3.05;49.53;95152.72;5112514;28;20032;-74
2022/01/23 13:19:59;;;;;;;13.88;6.97;;;;;;;-3.06;49.94;95162.97;5098951;28;20043;-74
2022/01/23 13:26:30;;;;;;;9.15;5.35;;;;;;;-3.25;49.84;95155.75;5114272;27;20135;-74
2022/01/23 13:30:21;;;;;;;10.15;5.90;;;;;;;-3.26;50.78;95153.25;5132915;27;20035;-74
2022/01/23 13:32:49;;;;;;;14.85;8.35;;;;;;;-3.19;50.86;95165.78;5130105;27;20475;-74
2022/01/23 13:35:16;;;;;;;27.77;13.30;;;;;;;-3.22;50.24;95157.41;5123866;27;20111;-74
2022/01/23 13:37:43;;;;;;;19.00;8.45;;;;;;;-3.32;51.00;95155.94;5115074;27;20508;-75
2022/01/23 13:40:15;;;;;;;18.42;10.43;;;;;;;-3.25;50.56;95154.94;5095322;28;20055;-74
2022/01/23 13:59:28;;;;;;;10.40;6.47;;;;;;;-3.45;51.06;95173.19;5116132;27;20107;-72
2022/01/23 14:04:27;;;;;;;9.38;6.13;;;;;;;-3.51;51.94;95174.16;5122912;27;20095;-72
2022/01/23 14:06:53;;;;;;;13.32;7.53;;;;;;;-3.58;52.24;95161.63;5120213;27;20046;-72
2022/01/23 14:09:19;;;;;;;6.95;4.45;;;;;;;-3.81;51.98;95173.13;5125416;27;20023;-72
2022/01/23 14:11:45;;;;;;;6.40;4.38;;;;;;;-3.73;52.33;95172.94;5093904;28;20035;-72
2022/01/23 14:14:13;;;;;;;7.60;3.95;;;;;;;-3.85;52.12;95167.25;5109706;27;20030;-72
2022/01/23 14:16:39;;;;;;;12.90;6.40;;;;;;;-3.69;52.34;95177.09;5130063;27;20100;-73
2022/01/23 14:19:15;;;;;;;9.88;6.03;;;;;;;-3.63;52.26;95169.34;5109760;27;20493;-72
2022/01/23 14:21:42;;;;;;;10.32;6.30;;;;;;;-3.60;52.84;95165.00;5125744;27;20023;-73
2022/01/23 14:24:07;;;;;;;11.95;7.57;;;;;;;-3.57;53.33;95158.19;5131555;27;20473;-75
2022/01/23 14:26:32;;;;;;;10.45;6.95;;;;;;;-3.51;52.90;95171.63;5095592;27;20032;-73
2022/01/23 14:29:03;;;;;;;9.65;5.20;;;;;;;-3.67;52.23;95168.56;5117378;27;20042;-73
2022/01/23 14:31:36;;;;;;;9.70;6.93;;;;;;;-3.65;53.13;95169.38;5111855;27;20031;-72
2022/01/23 14:34:04;;;;;;;14.35;9.32;;;;;;;-3.60;52.81;95174.34;5126230;27;20135;-72
2022/01/23 14:36:33;;;;;;;10.35;7.07;;;;;;;-3.48;52.73;95180.84;5114803;27;20394;-72
2022/01/23 14:39:00;;;;;;;14.30;8.13;;;;;;;-3.44;53.08;95187.53;5114259;27;20051;-72
2022/01/23 14:41:27;;;;;;;11.05;6.28;;;;;;;-3.58;53.61;95187.03;5132438;27;20050;-72
2022/01/23 14:43:53;;;;;;;9.02;5.25;;;;;;;-3.79;54.17;95194.22;5114382;27;20430;-73
2022/01/23 14:46:18;;;;;;;15.13;8.05;;;;;;;-3.87;53.62;95188.50;5132517;27;20027;-72
2022/01/23 14:48:47;;;;;;;12.70;7.25;;;;;;;-3.87;54.11;95191.03;5114193;27;20023;-72
2022/01/23 14:51:21;;;;;;;16.63;7.88;;;;;;;-3.79;55.04;95194.22;5112124;27;20432;-72
2022/01/23 14:53:47;;;;;;;13.93;8.05;;;;;;;-3.75;54.99;95207.69;5104284;27;20039;-73
2022/01/23 14:56:14;;;;;;;15.48;8.20;;;;;;;-3.84;54.60;95201.94;5130832;27;20072;-73
2022/01/23 14:58:39;;;;;;;21.92;11.25;;;;;;;-3.84;55.41;95214.63;5118789;27;20503;-72
2022/01/23 15:01:08;;;;;;;34.05;14.20;;;;;;;-3.75;55.55;95207.69;5105499;27;20027;-74
2022/01/23 15:03:34;;;;;;;33.13;15.48;;;;;;;-3.74;55.49;95210.19;5107362;27;20039;-73
2022/01/23 15:06:00;;;;;;;30.80;15.48;;;;;;;-3.79;55.98;95201.81;5099558;27;20043;-72
2022/01/23 15:08:25;;;;;;;13.45;7.05;;;;;;;-3.81;54.83;95216.28;5100283;28;20499;-73